sensor_id;sensor_type;location;lat;lon;timestamp;P1;durP1;ratioP1;P2;durP2;ratioP2
56455;SDS011;42354;53.218;6.564;2022-12-29T00:01:09;5.28;;;4.50;;
56455;SDS011;42354;53.218;6.564;2022-12-29T00:03:34;6.55;;;5.03;;
56455;SDS011;42354;53.218;6.564;2022-12-29T00:06:00;6.72;;;4.50;;
56455;SDS011;42354;53.218;6.564;2022-12-29T00:08:25;5.70;;;4.53;;
56455;SDS011;42354;53.218;6.564;2022-12-29T00:11:07;6.30;;;5.00;;
56455;SDS011;42354;53.218;6.564;2022-12-29T00:13:37;5.88;;;5.07;;
56455;SDS011;42354;53.218;6.564;2022-12-29T00:16:21;6.28;;;4.22;;
56455;SDS011;42354;53.218;6.564;2022-12-29T00:18:47;5.88;;;4.53;;
56455;SDS011;42354;53.218;6.564;2022-12-29T00:21:19;5.07;;;4.03;;
56455;SDS011;42354;53.218;6.564;2022-12-29T00:24:05;4.43;;;3.90;;
56455;SDS011;42354;53.218;6.564;2022-12-29T00:26:53;5.57;;;4.00;;
56455;SDS011;42354;53.218;6.564;2022-12-29T00:29:41;6.43;;;4.30;;
56455;SDS011;42354;53.218;6.564;2022-12-29T00:32:25;6.10;;;4.13;;
56455;SDS011;42354;53.218;6.564;2022-12-29T00:35:09;6.47;;;4.07;;
56455;SDS011;42354;53.218;6.564;2022-12-29T00:37:38;7.03;;;4.50;;
56455;SDS011;42354;53.218;6.564;2022-12-29T00:40:26;4.22;;;3.83;;
56455;SDS011;42354;53.218;6.564;2022-12-29T00:43:10;5.68;;;4.50;;
56455;SDS011;42354;53.218;6.564;2022-12-29T00:45:54;4.30;;;3.90;;
56455;SDS011;42354;53.218;6.564;2022-12-29T00:48:19;5.57;;;4.32;;
56455;SDS011;42354;53.218;6.564;2022-12-29T00:51:05;6.45;;;4.55;;
56455;SDS011;42354;53.218;6.564;2022-12-29T00:53:31;5.40;;;3.95;;
56455;SDS011;42354;53.218;6.564;2022-12-29T00:55:56;5.65;;;3.75;;
56455;SDS011;42354;53.218;6.564;2022-12-29T00:58:21;5.35;;;4.28;;
56455;SDS011;42354;53.218;6.564;2022-12-29T01:00:47;5.20;;;4.10;;
56455;SDS011;42354;53.218;6.564;2022-12-29T01:03:12;4.88;;;4.20;;
56455;SDS011;42354;53.218;6.564;2022-12-29T01:05:37;5.03;;;4.22;;
56455;SDS011;42354;53.218;6.564;2022-12-29T01:08:03;5.75;;;4.18;;
56455;SDS011;42354;53.218;6.564;2022-12-29T01:10:29;6.53;;;4.70;;
56455;SDS011;42354;53.218;6.564;2022-12-29T01:12:54;6.47;;;4.47;;
56455;SDS011;42354;53.218;6.564;2022-12-29T01:15:19;5.63;;;4.22;;
56455;SDS011;42354;53.218;6.564;2022-12-29T01:17:45;6.35;;;4.10;;
56455;SDS011;42354;53.218;6.564;2022-12-29T01:20:12;6.25;;;4.32;;
56455;SDS011;42354;53.218;6.564;2022-12-29T01:22:39;6.68;;;4.50;;
56455;SDS011;42354;53.218;6.564;2022-12-29T01:25:05;4.65;;;4.07;;
56455;SDS011;42354;53.218;6.564;2022-12-29T01:27:30;6.40;;;4.97;;
56455;SDS011;42354;53.218;6.564;2022-12-29T01:29:56;6.60;;;4.03;;
56455;SDS011;42354;53.218;6.564;2022-12-29T01:32:21;4.88;;;4.20;;
56455;SDS011;42354;53.218;6.564;2022-12-29T01:34:47;6.40;;;4.97;;
56455;SDS011;42354;53.218;6.564;2022-12-29T01:37:12;5.10;;;4.07;;
56455;SDS011;42354;53.218;6.564;2022-12-29T01:39:38;6.25;;;4.22;;
56455;SDS011;42354;53.218;6.564;2022-12-29T01:42:03;6.75;;;4.53;;
56455;SDS011;42354;53.218;6.564;2022-12-29T01:44:39;7.53;;;4.72;;
56455;SDS011;42354;53.218;6.564;2022-12-29T01:47:15;6.50;;;4.45;;
56455;SDS011;42354;53.218;6.564;2022-12-29T01:49:52;5.97;;;4.63;;
56455;SDS011;42354;53.218;6.564;2022-12-29T01:52:20;6.82;;;4.85;;
56455;SDS011;42354;53.218;6.564;2022-12-29T01:54:51;6.85;;;5.13;;
56455;SDS011;42354;53.218;6.564;2022-12-29T01:57:21;6.13;;;4.47;;
56455;SDS011;42354;53.218;6.564;2022-12-29T01:59:56;8.20;;;4.75;;
56455;SDS011;42354;53.218;6.564;2022-12-29T02:02:26;8.00;;;5.43;;
56455;SDS011;42354;53.218;6.564;2022-12-29T02:04:53;6.80;;;5.20;;
56455;SDS011;42354;53.218;6.564;2022-12-29T02:07:22;6.93;;;4.82;;
56455;SDS011;42354;53.218;6.564;2022-12-29T02:09:50;7.28;;;5.72;;
56455;SDS011;42354;53.218;6.564;2022-12-29T02:12:18;9.85;;;5.47;;
56455;SDS011;42354;53.218;6.564;2022-12-29T02:14:45;8.55;;;4.90;;
56455;SDS011;42354;53.218;6.564;2022-12-29T02:30:38;5.43;;;3.13;;
56455;SDS011;42354;53.218;6.564;2022-12-29T02:33:13;2.95;;;2.60;;
56455;SDS011;42354;53.218;6.564;2022-12-29T02:46:37;3.85;;;2.33;;
56455;SDS011;42354;53.218;6.564;2022-12-29T02:49:30;4.55;;;2.40;;
56455;SDS011;42354;53.218;6.564;2022-12-29T02:52:02;4.93;;;2.28;;
56455;SDS011;42354;53.218;6.564;2022-12-29T02:54:32;6.35;;;2.20;;
56455;SDS011;42354;53.218;6.564;2022-12-29T02:57:10;3.75;;;2.20;;
56455;SDS011;42354;53.218;6.564;2022-12-29T02:59:53;6.18;;;2.30;;
56455;SDS011;42354;53.218;6.564;2022-12-29T03:05:53;4.28;;;1.90;;
56455;SDS011;42354;53.218;6.564;2022-12-29T03:08:28;6.32;;;1.95;;
56455;SDS011;42354;53.218;6.564;2022-12-29T03:11:03;3.88;;;2.13;;
56455;SDS011;42354;53.218;6.564;2022-12-29T03:13:52;2.78;;;1.50;;
56455;SDS011;42354;53.218;6.564;2022-12-29T03:16:43;2.50;;;1.67;;
56455;SDS011;42354;53.218;6.564;2022-12-29T03:19:19;3.50;;;1.85;;
56455;SDS011;42354;53.218;6.564;2022-12-29T03:21:50;3.25;;;1.73;;
56455;SDS011;42354;53.218;6.564;2022-12-29T03:24:45;5.80;;;1.95;;
56455;SDS011;42354;53.218;6.564;2022-12-29T03:27:15;2.38;;;1.70;;
56455;SDS011;42354;53.218;6.564;2022-12-29T03:29:46;2.80;;;1.50;;
56455;SDS011;42354;53.218;6.564;2022-12-29T03:32:18;3.10;;;1.77;;
56455;SDS011;42354;53.218;6.564;2022-12-29T03:34:45;3.75;;;1.50;;
56455;SDS011;42354;53.218;6.564;2022-12-29T03:37:13;3.28;;;1.10;;
56455;SDS011;42354;53.218;6.564;2022-12-29T03:39:41;1.95;;;1.10;;
56455;SDS011;42354;53.218;6.564;2022-12-29T03:42:09;3.63;;;1.25;;
56455;SDS011;42354;53.218;6.564;2022-12-29T03:44:40;6.78;;;1.65;;
56455;SDS011;42354;53.218;6.564;2022-12-29T03:47:09;3.45;;;1.00;;
56455;SDS011;42354;53.218;6.564;2022-12-29T03:49:35;2.88;;;1.10;;
56455;SDS011;42354;53.218;6.564;2022-12-29T03:52:01;5.78;;;0.98;;
56455;SDS011;42354;53.218;6.564;2022-12-29T03:54:26;3.17;;;1.20;;
56455;SDS011;42354;53.218;6.564;2022-12-29T03:56:52;4.30;;;1.17;;
56455;SDS011;42354;53.218;6.564;2022-12-29T03:59:17;3.03;;;1.42;;
56455;SDS011;42354;53.218;6.564;2022-12-29T04:01:43;6.00;;;1.58;;
56455;SDS011;42354;53.218;6.564;2022-12-29T04:04:08;3.95;;;1.52;;
56455;SDS011;42354;53.218;6.564;2022-12-29T04:06:34;6.10;;;1.30;;
56455;SDS011;42354;53.218;6.564;2022-12-29T04:08:59;3.13;;;1.20;;
56455;SDS011;42354;53.218;6.564;2022-12-29T04:11:24;3.38;;;1.50;;
56455;SDS011;42354;53.218;6.564;2022-12-29T04:13:50;3.42;;;1.30;;
56455;SDS011;42354;53.218;6.564;2022-12-29T04:16:15;3.17;;;1.40;;
56455;SDS011;42354;53.218;6.564;2022-12-29T04:18:41;2.72;;;1.15;;
56455;SDS011;42354;53.218;6.564;2022-12-29T04:21:06;4.65;;;1.33;;
56455;SDS011;42354;53.218;6.564;2022-12-29T04:23:33;5.07;;;1.20;;
56455;SDS011;42354;53.218;6.564;2022-12-29T04:26:00;4.55;;;1.30;;
56455;SDS011;42354;53.218;6.564;2022-12-29T04:28:26;4.45;;;1.20;;
56455;SDS011;42354;53.218;6.564;2022-12-29T04:30:52;2.47;;;0.90;;
56455;SDS011;42354;53.218;6.564;2022-12-29T04:33:18;3.53;;;1.00;;
56455;SDS011;42354;53.218;6.564;2022-12-29T04:35:43;4.25;;;0.90;;
56455;SDS011;42354;53.218;6.564;2022-12-29T04:38:09;8.00;;;1.23;;
56455;SDS011;42354;53.218;6.564;2022-12-29T04:40:35;5.07;;;1.00;;
56455;SDS011;42354;53.218;6.564;2022-12-29T04:43:02;7.47;;;1.23;;
56455;SDS011;42354;53.218;6.564;2022-12-29T04:45:27;5.57;;;0.82;;
56455;SDS011;42354;53.218;6.564;2022-12-29T04:47:53;6.68;;;1.00;;
56455;SDS011;42354;53.218;6.564;2022-12-29T04:50:19;4.38;;;0.88;;
56455;SDS011;42354;53.218;6.564;2022-12-29T04:52:45;7.88;;;1.13;;
56455;SDS011;42354;53.218;6.564;2022-12-29T04:55:10;10.13;;;1.10;;
56455;SDS011;42354;53.218;6.564;2022-12-29T04:57:35;6.18;;;0.98;;
56455;SDS011;42354;53.218;6.564;2022-12-29T05:00:01;6.55;;;1.02;;
56455;SDS011;42354;53.218;6.564;2022-12-29T05:02:26;9.32;;;1.00;;
56455;SDS011;42354;53.218;6.564;2022-12-29T05:04:52;8.32;;;1.25;;
56455;SDS011;42354;53.218;6.564;2022-12-29T05:07:17;9.32;;;2.50;;
56455;SDS011;42354;53.218;6.564;2022-12-29T05:09:42;9.90;;;1.30;;
56455;SDS011;42354;53.218;6.564;2022-12-29T05:12:08;7.38;;;1.10;;
56455;SDS011;42354;53.218;6.564;2022-12-29T05:14:33;10.60;;;1.95;;
56455;SDS011;42354;53.218;6.564;2022-12-29T05:16:58;12.20;;;1.55;;
56455;SDS011;42354;53.218;6.564;2022-12-29T05:19:24;11.88;;;1.65;;
56455;SDS011;42354;53.218;6.564;2022-12-29T05:21:49;6.90;;;1.00;;
56455;SDS011;42354;53.218;6.564;2022-12-29T05:24:14;10.77;;;1.65;;
56455;SDS011;42354;53.218;6.564;2022-12-29T05:26:40;6.75;;;1.20;;
56455;SDS011;42354;53.218;6.564;2022-12-29T05:29:06;13.38;;;1.90;;
56455;SDS011;42354;53.218;6.564;2022-12-29T05:31:32;11.23;;;1.48;;
56455;SDS011;42354;53.218;6.564;2022-12-29T05:33:58;8.27;;;1.40;;
56455;SDS011;42354;53.218;6.564;2022-12-29T05:36:23;8.05;;;1.40;;
56455;SDS011;42354;53.218;6.564;2022-12-29T05:38:49;8.75;;;1.30;;
56455;SDS011;42354;53.218;6.564;2022-12-29T05:41:14;10.13;;;1.13;;
56455;SDS011;42354;53.218;6.564;2022-12-29T05:43:39;11.13;;;1.35;;
56455;SDS011;42354;53.218;6.564;2022-12-29T05:46:05;15.52;;;1.60;;
56455;SDS011;42354;53.218;6.564;2022-12-29T05:48:30;7.88;;;1.30;;
56455;SDS011;42354;53.218;6.564;2022-12-29T05:50:55;5.88;;;1.20;;
56455;SDS011;42354;53.218;6.564;2022-12-29T05:53:21;9.40;;;1.77;;
56455;SDS011;42354;53.218;6.564;2022-12-29T05:55:46;11.57;;;1.85;;
56455;SDS011;42354;53.218;6.564;2022-12-29T05:58:13;9.90;;;1.33;;
56455;SDS011;42354;53.218;6.564;2022-12-29T06:00:39;7.78;;;1.77;;
56455;SDS011;42354;53.218;6.564;2022-12-29T06:03:04;9.02;;;1.70;;
56455;SDS011;42354;53.218;6.564;2022-12-29T06:05:30;13.60;;;1.75;;
56455;SDS011;42354;53.218;6.564;2022-12-29T06:07:55;12.75;;;1.55;;
56455;SDS011;42354;53.218;6.564;2022-12-29T06:10:20;13.07;;;2.13;;
56455;SDS011;42354;53.218;6.564;2022-12-29T06:12:46;9.85;;;1.50;;
56455;SDS011;42354;53.218;6.564;2022-12-29T06:15:12;9.57;;;1.80;;
56455;SDS011;42354;53.218;6.564;2022-12-29T06:17:37;10.40;;;1.65;;
56455;SDS011;42354;53.218;6.564;2022-12-29T06:20:02;9.27;;;1.38;;
56455;SDS011;42354;53.218;6.564;2022-12-29T06:22:28;10.63;;;1.50;;
56455;SDS011;42354;53.218;6.564;2022-12-29T06:24:53;12.30;;;1.88;;
56455;SDS011;42354;53.218;6.564;2022-12-29T06:27:19;10.55;;;1.50;;
56455;SDS011;42354;53.218;6.564;2022-12-29T06:29:44;8.82;;;1.63;;
56455;SDS011;42354;53.218;6.564;2022-12-29T06:32:10;13.68;;;1.60;;
56455;SDS011;42354;53.218;6.564;2022-12-29T06:34:35;12.35;;;1.58;;
56455;SDS011;42354;53.218;6.564;2022-12-29T06:37:00;16.27;;;1.98;;
56455;SDS011;42354;53.218;6.564;2022-12-29T06:39:26;16.77;;;1.95;;
56455;SDS011;42354;53.218;6.564;2022-12-29T06:41:54;18.00;;;1.85;;
56455;SDS011;42354;53.218;6.564;2022-12-29T06:44:20;9.05;;;1.30;;
56455;SDS011;42354;53.218;6.564;2022-12-29T06:46:46;14.63;;;2.17;;
56455;SDS011;42354;53.218;6.564;2022-12-29T06:49:12;11.50;;;1.58;;
56455;SDS011;42354;53.218;6.564;2022-12-29T06:51:38;16.52;;;1.63;;
56455;SDS011;42354;53.218;6.564;2022-12-29T06:54:03;10.98;;;1.75;;
56455;SDS011;42354;53.218;6.564;2022-12-29T06:56:28;20.10;;;2.10;;
56455;SDS011;42354;53.218;6.564;2022-12-29T06:58:54;26.58;;;2.25;;
56455;SDS011;42354;53.218;6.564;2022-12-29T07:01:19;14.30;;;1.90;;
56455;SDS011;42354;53.218;6.564;2022-12-29T07:03:44;25.77;;;2.65;;
56455;SDS011;42354;53.218;6.564;2022-12-29T07:06:10;16.98;;;2.40;;
56455;SDS011;42354;53.218;6.564;2022-12-29T07:08:35;13.70;;;1.80;;
56455;SDS011;42354;53.218;6.564;2022-12-29T07:11:00;15.23;;;2.22;;
56455;SDS011;42354;53.218;6.564;2022-12-29T07:13:26;16.70;;;1.83;;
56455;SDS011;42354;53.218;6.564;2022-12-29T07:15:51;17.55;;;2.22;;
56455;SDS011;42354;53.218;6.564;2022-12-29T07:18:16;19.38;;;2.50;;
56455;SDS011;42354;53.218;6.564;2022-12-29T07:20:42;17.40;;;3.47;;
56455;SDS011;42354;53.218;6.564;2022-12-29T07:23:07;11.82;;;1.70;;
56455;SDS011;42354;53.218;6.564;2022-12-29T07:25:32;15.05;;;1.80;;
56455;SDS011;42354;53.218;6.564;2022-12-29T07:27:59;14.18;;;1.70;;
56455;SDS011;42354;53.218;6.564;2022-12-29T07:30:25;16.08;;;2.70;;
56455;SDS011;42354;53.218;6.564;2022-12-29T07:32:50;12.00;;;2.00;;
56455;SDS011;42354;53.218;6.564;2022-12-29T07:35:16;17.08;;;2.20;;
56455;SDS011;42354;53.218;6.564;2022-12-29T07:37:41;15.68;;;1.75;;
56455;SDS011;42354;53.218;6.564;2022-12-29T07:40:07;12.88;;;1.98;;
56455;SDS011;42354;53.218;6.564;2022-12-29T07:42:34;10.48;;;1.77;;
56455;SDS011;42354;53.218;6.564;2022-12-29T07:44:59;15.63;;;2.00;;
56455;SDS011;42354;53.218;6.564;2022-12-29T07:47:25;14.63;;;2.33;;
56455;SDS011;42354;53.218;6.564;2022-12-29T07:49:50;14.93;;;2.22;;
56455;SDS011;42354;53.218;6.564;2022-12-29T07:52:16;14.57;;;2.00;;
56455;SDS011;42354;53.218;6.564;2022-12-29T07:54:41;16.17;;;2.15;;
56455;SDS011;42354;53.218;6.564;2022-12-29T07:57:06;15.18;;;1.63;;
56455;SDS011;42354;53.218;6.564;2022-12-29T07:59:32;10.07;;;2.22;;
56455;SDS011;42354;53.218;6.564;2022-12-29T08:01:57;11.25;;;1.70;;
56455;SDS011;42354;53.218;6.564;2022-12-29T08:04:23;18.98;;;2.22;;
56455;SDS011;42354;53.218;6.564;2022-12-29T08:06:48;13.95;;;2.05;;
56455;SDS011;42354;53.218;6.564;2022-12-29T08:09:13;19.83;;;2.25;;
56455;SDS011;42354;53.218;6.564;2022-12-29T08:11:39;15.57;;;2.50;;
56455;SDS011;42354;53.218;6.564;2022-12-29T08:14:05;12.75;;;1.73;;
56455;SDS011;42354;53.218;6.564;2022-12-29T08:16:30;17.58;;;2.45;;
56455;SDS011;42354;53.218;6.564;2022-12-29T08:18:56;12.13;;;2.17;;
56455;SDS011;42354;53.218;6.564;2022-12-29T08:21:21;12.02;;;1.90;;
56455;SDS011;42354;53.218;6.564;2022-12-29T08:23:47;15.82;;;2.15;;
56455;SDS011;42354;53.218;6.564;2022-12-29T08:26:12;17.65;;;2.28;;
56455;SDS011;42354;53.218;6.564;2022-12-29T08:28:38;13.32;;;2.35;;
56455;SDS011;42354;53.218;6.564;2022-12-29T08:31:04;14.93;;;1.75;;
56455;SDS011;42354;53.218;6.564;2022-12-29T08:33:29;15.70;;;1.77;;
56455;SDS011;42354;53.218;6.564;2022-12-29T08:35:59;16.17;;;2.60;;
56455;SDS011;42354;53.218;6.564;2022-12-29T08:38:26;18.25;;;2.35;;
56455;SDS011;42354;53.218;6.564;2022-12-29T08:40:53;19.05;;;2.75;;
56455;SDS011;42354;53.218;6.564;2022-12-29T08:43:18;16.98;;;3.20;;
56455;SDS011;42354;53.218;6.564;2022-12-29T08:45:43;19.75;;;2.80;;
56455;SDS011;42354;53.218;6.564;2022-12-29T08:48:10;20.27;;;2.92;;
56455;SDS011;42354;53.218;6.564;2022-12-29T08:50:35;21.33;;;2.45;;
56455;SDS011;42354;53.218;6.564;2022-12-29T08:53:01;14.60;;;2.22;;
56455;SDS011;42354;53.218;6.564;2022-12-29T08:55:26;22.02;;;2.47;;
56455;SDS011;42354;53.218;6.564;2022-12-29T08:57:51;25.52;;;3.35;;
56455;SDS011;42354;53.218;6.564;2022-12-29T09:00:17;20.98;;;2.60;;
56455;SDS011;42354;53.218;6.564;2022-12-29T09:02:43;26.83;;;2.65;;
56455;SDS011;42354;53.218;6.564;2022-12-29T09:05:09;18.83;;;2.42;;
56455;SDS011;42354;53.218;6.564;2022-12-29T09:07:34;29.40;;;2.95;;
56455;SDS011;42354;53.218;6.564;2022-12-29T09:10:00;29.17;;;3.42;;
56455;SDS011;42354;53.218;6.564;2022-12-29T09:12:25;26.60;;;3.60;;
56455;SDS011;42354;53.218;6.564;2022-12-29T09:14:51;17.92;;;3.10;;
56455;SDS011;42354;53.218;6.564;2022-12-29T09:17:16;22.08;;;3.15;;
56455;SDS011;42354;53.218;6.564;2022-12-29T09:20:00;18.63;;;3.20;;
56455;SDS011;42354;53.218;6.564;2022-12-29T09:22:25;26.75;;;3.95;;
56455;SDS011;42354;53.218;6.564;2022-12-29T09:24:51;26.38;;;3.72;;
56455;SDS011;42354;53.218;6.564;2022-12-29T09:27:16;20.58;;;2.90;;
56455;SDS011;42354;53.218;6.564;2022-12-29T09:29:42;21.70;;;3.22;;
56455;SDS011;42354;53.218;6.564;2022-12-29T09:32:07;18.42;;;3.03;;
56455;SDS011;42354;53.218;6.564;2022-12-29T09:34:32;23.90;;;2.85;;
56455;SDS011;42354;53.218;6.564;2022-12-29T09:36:58;20.50;;;2.60;;
56455;SDS011;42354;53.218;6.564;2022-12-29T09:39:23;21.67;;;2.97;;
56455;SDS011;42354;53.218;6.564;2022-12-29T09:47:30;19.25;;;2.28;;
56455;SDS011;42354;53.218;6.564;2022-12-29T09:50:21;12.63;;;2.60;;
56455;SDS011;42354;53.218;6.564;2022-12-29T09:52:58;23.50;;;3.72;;
56455;SDS011;42354;53.218;6.564;2022-12-29T09:55:37;17.50;;;2.28;;
56455;SDS011;42354;53.218;6.564;2022-12-29T10:00:43;17.58;;;2.35;;
56455;SDS011;42354;53.218;6.564;2022-12-29T10:03:13;15.07;;;1.92;;
56455;SDS011;42354;53.218;6.564;2022-12-29T10:05:49;13.02;;;2.15;;
56455;SDS011;42354;53.218;6.564;2022-12-29T10:13:57;22.52;;;1.92;;
56455;SDS011;42354;53.218;6.564;2022-12-29T10:24:39;19.15;;;2.85;;
56455;SDS011;42354;53.218;6.564;2022-12-29T10:27:05;15.55;;;2.45;;
56455;SDS011;42354;53.218;6.564;2022-12-29T10:29:41;21.05;;;2.28;;
56455;SDS011;42354;53.218;6.564;2022-12-29T10:32:30;16.40;;;2.38;;
56455;SDS011;42354;53.218;6.564;2022-12-29T10:35:12;12.75;;;2.08;;
56455;SDS011;42354;53.218;6.564;2022-12-29T10:37:48;13.85;;;2.47;;
56455;SDS011;42354;53.218;6.564;2022-12-29T10:40:18;19.60;;;2.25;;
56455;SDS011;42354;53.218;6.564;2022-12-29T10:42:53;17.45;;;2.65;;
56455;SDS011;42354;53.218;6.564;2022-12-29T10:45:20;15.85;;;2.00;;
56455;SDS011;42354;53.218;6.564;2022-12-29T10:50:49;15.73;;;2.30;;
56455;SDS011;42354;53.218;6.564;2022-12-29T10:53:22;16.67;;;2.83;;
56455;SDS011;42354;53.218;6.564;2022-12-29T10:55:52;16.92;;;2.80;;
56455;SDS011;42354;53.218;6.564;2022-12-29T10:58:20;12.88;;;2.20;;
56455;SDS011;42354;53.218;6.564;2022-12-29T11:00:49;14.18;;;2.03;;
56455;SDS011;42354;53.218;6.564;2022-12-29T11:06:07;17.45;;;3.75;;
56455;SDS011;42354;53.218;6.564;2022-12-29T11:08:39;22.92;;;2.65;;
56455;SDS011;42354;53.218;6.564;2022-12-29T11:11:21;24.10;;;3.50;;
56455;SDS011;42354;53.218;6.564;2022-12-29T11:13:54;21.92;;;3.28;;
56455;SDS011;42354;53.218;6.564;2022-12-29T11:16:29;24.65;;;2.72;;
56455;SDS011;42354;53.218;6.564;2022-12-29T11:18:56;18.73;;;2.40;;
56455;SDS011;42354;53.218;6.564;2022-12-29T11:24:05;23.25;;;3.13;;
56455;SDS011;42354;53.218;6.564;2022-12-29T11:26:43;24.98;;;4.30;;
56455;SDS011;42354;53.218;6.564;2022-12-29T11:34:23;28.35;;;3.85;;
56455;SDS011;42354;53.218;6.564;2022-12-29T11:36:58;21.60;;;2.90;;
56455;SDS011;42354;53.218;6.564;2022-12-29T11:42:23;24.10;;;5.05;;
56455;SDS011;42354;53.218;6.564;2022-12-29T11:44:59;27.40;;;3.70;;
56455;SDS011;42354;53.218;6.564;2022-12-29T11:47:31;20.15;;;3.40;;
56455;SDS011;42354;53.218;6.564;2022-12-29T11:50:02;21.65;;;3.50;;
56455;SDS011;42354;53.218;6.564;2022-12-29T11:52:32;17.02;;;2.58;;
56455;SDS011;42354;53.218;6.564;2022-12-29T11:55:00;22.05;;;3.13;;
56455;SDS011;42354;53.218;6.564;2022-12-29T11:57:28;28.02;;;3.55;;
56455;SDS011;42354;53.218;6.564;2022-12-29T11:59:54;24.33;;;4.78;;
56455;SDS011;42354;53.218;6.564;2022-12-29T12:05:32;28.08;;;4.53;;
56455;SDS011;42354;53.218;6.564;2022-12-29T12:08:08;31.08;;;3.70;;
56455;SDS011;42354;53.218;6.564;2022-12-29T12:10:44;28.67;;;3.33;;
56455;SDS011;42354;53.218;6.564;2022-12-29T12:16:06;33.15;;;3.72;;
56455;SDS011;42354;53.218;6.564;2022-12-29T12:18:50;34.42;;;5.80;;
56455;SDS011;42354;53.218;6.564;2022-12-29T12:21:23;26.60;;;3.38;;
56455;SDS011;42354;53.218;6.564;2022-12-29T12:26:32;25.67;;;3.80;;
56455;SDS011;42354;53.218;6.564;2022-12-29T12:34:41;24.73;;;4.75;;
56455;SDS011;42354;53.218;6.564;2022-12-29T12:39:49;33.30;;;3.45;;
56455;SDS011;42354;53.218;6.564;2022-12-29T12:47:58;13.52;;;1.88;;
56455;SDS011;42354;53.218;6.564;2022-12-29T12:50:44;15.25;;;2.50;;
56455;SDS011;42354;53.218;6.564;2022-12-29T12:53:37;19.20;;;2.90;;
56455;SDS011;42354;53.218;6.564;2022-12-29T13:01:42;14.27;;;2.30;;
56455;SDS011;42354;53.218;6.564;2022-12-29T13:04:35;13.98;;;2.30;;
56455;SDS011;42354;53.218;6.564;2022-12-29T13:07:27;21.02;;;2.75;;
56455;SDS011;42354;53.218;6.564;2022-12-29T13:20:11;13.68;;;2.00;;
56455;SDS011;42354;53.218;6.564;2022-12-29T13:25:37;8.48;;;1.42;;
56455;SDS011;42354;53.218;6.564;2022-12-29T13:31:00;15.45;;;2.15;;
56455;SDS011;42354;53.218;6.564;2022-12-29T13:41:52;10.98;;;1.77;;
56455;SDS011;42354;53.218;6.564;2022-12-29T13:44:30;14.32;;;2.60;;
56455;SDS011;42354;53.218;6.564;2022-12-29T13:46:59;20.80;;;1.98;;
56455;SDS011;42354;53.218;6.564;2022-12-29T13:49:30;12.57;;;1.77;;
56455;SDS011;42354;53.218;6.564;2022-12-29T13:51:58;8.00;;;1.40;;
56455;SDS011;42354;53.218;6.564;2022-12-29T13:59:57;11.52;;;1.70;;
56455;SDS011;42354;53.218;6.564;2022-12-29T14:07:35;14.30;;;1.20;;
56455;SDS011;42354;53.218;6.564;2022-12-29T14:10:02;11.90;;;1.30;;
56455;SDS011;42354;53.218;6.564;2022-12-29T14:15:16;14.57;;;1.85;;
56455;SDS011;42354;53.218;6.564;2022-12-29T14:18:00;10.70;;;1.80;;
56455;SDS011;42354;53.218;6.564;2022-12-29T14:20:30;14.63;;;1.85;;
56455;SDS011;42354;53.218;6.564;2022-12-29T14:22:57;11.57;;;1.73;;
56455;SDS011;42354;53.218;6.564;2022-12-29T14:28:23;8.75;;;1.50;;
56455;SDS011;42354;53.218;6.564;2022-12-29T14:30:52;10.45;;;1.70;;
56455;SDS011;42354;53.218;6.564;2022-12-29T14:33:20;12.98;;;1.92;;
56455;SDS011;42354;53.218;6.564;2022-12-29T14:35:51;12.07;;;2.30;;
56455;SDS011;42354;53.218;6.564;2022-12-29T14:38:19;10.82;;;1.50;;
56455;SDS011;42354;53.218;6.564;2022-12-29T14:40:49;14.05;;;2.03;;
56455;SDS011;42354;53.218;6.564;2022-12-29T14:43:26;12.73;;;1.65;;
56455;SDS011;42354;53.218;6.564;2022-12-29T14:45:53;8.65;;;1.38;;
56455;SDS011;42354;53.218;6.564;2022-12-29T14:50:49;16.40;;;2.15;;
56455;SDS011;42354;53.218;6.564;2022-12-29T14:56:08;16.17;;;2.13;;
56455;SDS011;42354;53.218;6.564;2022-12-29T14:58:43;10.32;;;1.73;;
56455;SDS011;42354;53.218;6.564;2022-12-29T15:01:20;18.85;;;2.28;;
56455;SDS011;42354;53.218;6.564;2022-12-29T15:04:13;15.00;;;2.05;;
56455;SDS011;42354;53.218;6.564;2022-12-29T15:06:42;12.68;;;2.15;;
56455;SDS011;42354;53.218;6.564;2022-12-29T15:09:24;22.27;;;2.97;;
56455;SDS011;42354;53.218;6.564;2022-12-29T15:11:51;20.83;;;2.95;;
56455;SDS011;42354;53.218;6.564;2022-12-29T15:14:34;19.65;;;2.33;;
56455;SDS011;42354;53.218;6.564;2022-12-29T15:17:00;14.32;;;2.50;;
56455;SDS011;42354;53.218;6.564;2022-12-29T15:19:33;14.80;;;1.92;;
56455;SDS011;42354;53.218;6.564;2022-12-29T15:21:58;18.20;;;2.08;;
56455;SDS011;42354;53.218;6.564;2022-12-29T15:24:25;17.60;;;3.45;;
56455;SDS011;42354;53.218;6.564;2022-12-29T15:26:51;18.25;;;2.65;;
56455;SDS011;42354;53.218;6.564;2022-12-29T15:29:39;15.68;;;2.50;;
56455;SDS011;42354;53.218;6.564;2022-12-29T15:34:41;17.50;;;2.28;;
56455;SDS011;42354;53.218;6.564;2022-12-29T15:37:08;20.70;;;2.58;;
56455;SDS011;42354;53.218;6.564;2022-12-29T15:39:34;18.92;;;2.33;;
56455;SDS011;42354;53.218;6.564;2022-12-29T15:42:07;23.08;;;2.33;;
56455;SDS011;42354;53.218;6.564;2022-12-29T15:44:51;14.38;;;2.10;;
56455;SDS011;42354;53.218;6.564;2022-12-29T15:47:18;14.35;;;2.95;;
56455;SDS011;42354;53.218;6.564;2022-12-29T15:49:48;18.80;;;2.72;;
56455;SDS011;42354;53.218;6.564;2022-12-29T15:52:20;13.65;;;1.80;;
56455;SDS011;42354;53.218;6.564;2022-12-29T15:54:48;15.60;;;2.55;;
56455;SDS011;42354;53.218;6.564;2022-12-29T15:57:21;11.40;;;1.70;;
56455;SDS011;42354;53.218;6.564;2022-12-29T15:59:48;15.52;;;1.73;;
56455;SDS011;42354;53.218;6.564;2022-12-29T16:02:14;24.85;;;3.15;;
56455;SDS011;42354;53.218;6.564;2022-12-29T16:04:41;11.10;;;2.45;;
56455;SDS011;42354;53.218;6.564;2022-12-29T16:09:55;17.77;;;1.70;;
56455;SDS011;42354;53.218;6.564;2022-12-29T16:12:26;14.75;;;2.20;;
56455;SDS011;42354;53.218;6.564;2022-12-29T16:14:57;15.65;;;2.55;;
56455;SDS011;42354;53.218;6.564;2022-12-29T16:17:28;17.98;;;2.53;;
56455;SDS011;42354;53.218;6.564;2022-12-29T16:19:58;21.25;;;3.00;;
56455;SDS011;42354;53.218;6.564;2022-12-29T16:25:22;13.90;;;2.88;;
56455;SDS011;42354;53.218;6.564;2022-12-29T16:27:53;19.90;;;2.30;;
56455;SDS011;42354;53.218;6.564;2022-12-29T16:30:20;16.92;;;1.98;;
56455;SDS011;42354;53.218;6.564;2022-12-29T16:32:48;12.90;;;1.70;;
56455;SDS011;42354;53.218;6.564;2022-12-29T16:35:20;15.75;;;2.40;;
56455;SDS011;42354;53.218;6.564;2022-12-29T16:48:26;5.40;;;0.98;;
56455;SDS011;42354;53.218;6.564;2022-12-29T16:51:10;5.10;;;0.98;;
56455;SDS011;42354;53.218;6.564;2022-12-29T16:53:39;5.72;;;0.77;;
56455;SDS011;42354;53.218;6.564;2022-12-29T16:56:08;3.10;;;0.80;;
56455;SDS011;42354;53.218;6.564;2022-12-29T16:58:39;6.35;;;1.10;;
56455;SDS011;42354;53.218;6.564;2022-12-29T17:01:05;7.05;;;1.13;;
56455;SDS011;42354;53.218;6.564;2022-12-29T17:03:40;6.20;;;1.05;;
56455;SDS011;42354;53.218;6.564;2022-12-29T17:06:14;6.10;;;1.40;;
56455;SDS011;42354;53.218;6.564;2022-12-29T17:08:41;9.95;;;1.80;;
56455;SDS011;42354;53.218;6.564;2022-12-29T17:11:17;10.23;;;1.40;;
56455;SDS011;42354;53.218;6.564;2022-12-29T17:17:17;12.60;;;4.90;;
56455;SDS011;42354;53.218;6.564;2022-12-29T17:19:47;7.80;;;2.28;;
56455;SDS011;42354;53.218;6.564;2022-12-29T17:22:16;8.60;;;2.45;;
56455;SDS011;42354;53.218;6.564;2022-12-29T17:24:45;5.45;;;2.10;;
56455;SDS011;42354;53.218;6.564;2022-12-29T17:27:29;11.65;;;2.60;;
56455;SDS011;42354;53.218;6.564;2022-12-29T17:30:01;9.57;;;2.00;;
56455;SDS011;42354;53.218;6.564;2022-12-29T17:32:38;12.85;;;2.00;;
56455;SDS011;42354;53.218;6.564;2022-12-29T17:35:08;21.05;;;2.58;;
56455;SDS011;42354;53.218;6.564;2022-12-29T17:37:42;13.50;;;2.25;;